Time;durP1;ratioP1;P1;durP2;ratioP2;P2;SDS_P1;SDS_P2;PMS_P1;PMS_P2;Temp;Humidity;BMP_temperature;BMP_pressure;BME280_temperature;BME280_humidity;BME280_pressure;Samples;Min_cycle;Max_cycle;Signal;HPM_P1;HPM_P2
2023/06/24 00:02:13;;;;;;;33.08;17.25;;;;;;;22.42;87.68;100772.13;4955934;28;20525;-93
2023/06/24 00:04:39;;;;;;;26.67;17.23;;;;;;;22.47;88.18;100781.47;4956559;28;20102;-93
2023/06/24 00:07:05;;;;;;;35.42;18.77;;;;;;;22.35;88.60;100783.06;4958610;28;20081;-94
2023/06/24 00:09:31;;;;;;;22.95;15.13;;;;;;;22.20;89.19;100765.81;4956036;28;20043;-96
2023/06/24 00:11:58;;;;;;;23.20;15.57;;;;;;;22.33;89.32;100784.28;4956444;28;20266;-93
2023/06/24 00:14:26;;;;;;;20.00;14.50;;;;;;;22.28;88.51;100762.97;4972587;28;20042;-94
2023/06/24 00:16:52;;;;;;;26.38;14.38;;;;;;;22.18;87.89;100748.75;4956813;28;20042;-94
2023/06/24 00:19:25;;;;;;;25.45;14.10;;;;;;;22.19;86.93;100751.28;4958125;28;20137;-94
2023/06/24 00:21:51;;;;;;;19.45;13.48;;;;;;;22.33;86.59;100765.94;4975984;28;20086;-94
2023/06/24 00:24:25;;;;;;;24.17;13.60;;;;;;;22.17;86.15;100752.50;4981415;28;20042;-95
2023/06/24 00:26:51;;;;;;;18.80;13.07;;;;;;;22.25;85.35;100788.03;4998992;28;20058;-95
2023/06/24 00:29:17;;;;;;;17.15;12.93;;;;;;;22.16;84.69;100767.28;4990662;28;20046;-94
2023/06/24 00:31:43;;;;;;;20.60;12.75;;;;;;;22.09;84.26;100749.91;4998379;28;20026;-93
2023/06/24 00:34:08;;;;;;;23.13;12.13;;;;;;;22.03;83.75;100726.06;5011357;28;20045;-92
2023/06/24 00:36:35;;;;;;;16.35;11.35;;;;;;;22.24;83.42;100751.53;4999511;28;20041;-94
2023/06/24 00:39:03;;;;;;;15.10;11.75;;;;;;;22.28;82.88;100765.69;5011155;28;20057;-92
2023/06/24 00:41:33;;;;;;;20.13;12.52;;;;;;;22.00;82.73;100719.09;4998748;28;20053;-96
2023/06/24 00:44:00;;;;;;;23.10;11.95;;;;;;;22.11;82.21;100747.81;4999769;28;20073;-92
2023/06/24 00:46:27;;;;;;;25.98;13.02;;;;;;;22.20;81.65;100752.13;5001423;28;20028;-94
2023/06/24 00:48:53;;;;;;;25.42;11.50;;;;;;;22.26;80.67;100753.25;5000641;28;20049;-93
2023/06/24 00:51:21;;;;;;;14.30;9.95;;;;;;;22.12;79.79;100733.09;5016618;28;20034;-92
2023/06/24 00:53:47;;;;;;;20.75;12.02;;;;;;;22.14;79.00;100741.94;5007056;28;20073;-92
2023/06/24 00:56:14;;;;;;;17.20;11.48;;;;;;;22.08;79.04;100738.09;5009702;28;20039;-91
2023/06/24 00:58:42;;;;;;;27.35;11.93;;;;;;;22.03;78.96;100754.28;5010075;28;20058;-92
2023/06/24 01:01:08;;;;;;;14.10;10.52;;;;;;;21.97;79.07;100763.28;4999259;28;20038;-92
2023/06/24 01:03:36;;;;;;;26.15;10.57;;;;;;;21.85;78.74;100747.53;4979418;28;20035;-92
2023/06/24 01:06:02;;;;;;;20.90;10.30;;;;;;;21.97;78.54;100763.28;4980258;28;20037;-93
2023/06/24 01:08:28;;;;;;;21.80;11.57;;;;;;;21.82;77.96;100732.34;4977421;28;20034;-92
2023/06/24 01:10:54;;;;;;;30.40;11.43;;;;;;;21.94;77.30;100752.72;4977112;28;20494;-94
2023/06/24 01:13:20;;;;;;;16.98;11.25;;;;;;;21.78;77.51;100730.19;4992831;28;20038;-93
2023/06/24 01:15:46;;;;;;;20.55;11.27;;;;;;;21.67;77.57;100724.22;4977132;28;20041;-94
2023/06/24 01:18:24;;;;;;;19.88;11.85;;;;;;;21.62;77.87;100737.59;4993744;28;20042;-94
2023/06/24 01:20:58;;;;;;;21.20;11.63;;;;;;;21.56;78.04;100730.16;4978944;28;20467;-93
2023/06/24 01:23:46;;;;;;;31.25;11.35;;;;;;;21.57;78.23;100739.22;4980109;28;20427;-93
2023/06/24 01:26:18;;;;;;;33.58;11.75;;;;;;;21.53;78.32;100732.44;5005651;28;20491;-93
2023/06/24 01:29:02;;;;;;;27.80;11.25;;;;;;;21.28;78.76;100701.88;5010980;28;20046;-92
2023/06/24 01:31:57;;;;;;;15.32;10.60;;;;;;;21.34;78.97;100714.78;4972445;29;20035;-95
2023/06/24 01:34:32;;;;;;;35.08;10.00;;;;;;;21.35;78.65;100713.72;4917969;29;20040;-96
2023/06/24 01:37:11;;;;;;;24.08;10.98;;;;;;;21.47;78.36;100728.59;4902271;29;20043;-95
2023/06/24 01:39:46;;;;;;;23.83;10.60;;;;;;;21.27;78.16;100707.50;4896753;29;20048;-94
2023/06/24 01:42:14;;;;;;;31.10;10.65;;;;;;;21.28;78.30;100710.06;4895009;29;20084;-92
2023/06/24 01:44:43;;;;;;;21.40;9.82;;;;;;;21.31;78.23;100730.72;4895062;29;20071;-92
2023/06/24 01:47:10;;;;;;;30.10;12.52;;;;;;;21.28;78.52;100726.50;4899011;29;20075;-93
2023/06/24 01:49:41;;;;;;;25.63;11.07;;;;;;;21.15;78.53;100698.97;4900463;29;20171;-93
2023/06/24 01:52:09;;;;;;;27.08;12.05;;;;;;;21.07;78.63;100694.41;4899245;29;20116;-94
2023/06/24 01:54:38;;;;;;;32.95;10.70;;;;;;;21.13;78.47;100710.06;4898884;29;20198;-94
2023/06/24 01:57:07;;;;;;;29.33;11.52;;;;;;;21.06;78.51;100705.53;4898727;29;20533;-94
2023/06/24 01:59:34;;;;;;;47.78;12.55;;;;;;;20.86;78.27;100680.66;4898139;29;20032;-93
2023/06/24 02:02:00;;;;;;;46.13;13.52;;;;;;;20.85;78.26;100692.66;4898512;29;20064;-93
2023/06/24 02:04:31;;;;;;;43.83;12.63;;;;;;;20.96;78.06;100713.19;4879999;29;20069;-94
2023/06/24 02:07:08;;;;;;;26.98;11.20;;;;;;;20.78;78.08;100693.59;4880111;29;20570;-94
2023/06/24 02:09:35;;;;;;;32.92;11.32;;;;;;;20.82;78.34;100705.84;4909256;28;20044;-94
2023/06/24 02:12:03;;;;;;;34.85;10.88;;;;;;;20.86;78.25;100723.53;4974838;28;20042;-93
2023/06/24 02:14:31;;;;;;;36.65;10.85;;;;;;;20.88;78.55;100726.97;4975001;28;20038;-94
2023/06/24 02:17:00;;;;;;;18.38;10.10;;;;;;;20.98;78.58;100739.28;4975260;28;20482;-93
2023/06/24 02:19:30;;;;;;;26.98;11.05;;;;;;;20.93;78.43;100733.56;4959951;28;20098;-93
2023/06/24 02:21:59;;;;;;;19.48;10.77;;;;;;;20.82;77.87;100708.59;4959858;28;20054;-92
2023/06/24 02:24:27;;;;;;;18.05;11.18;;;;;;;20.80;77.66;100696.97;4972092;28;20050;-93
2023/06/24 02:26:53;;;;;;;33.55;12.25;;;;;;;20.81;77.40;100709.59;4981715;28;20063;-95
2023/06/24 02:29:21;;;;;;;35.25;11.63;;;;;;;20.83;77.50;100724.78;4997668;28;20022;-93
2023/06/24 02:31:47;;;;;;;23.75;10.68;;;;;;;20.98;77.59;100758.44;4981149;28;20039;-94
2023/06/24 02:34:14;;;;;;;21.42;10.80;;;;;;;20.90;77.60;100746.75;4998258;28;20059;-94
2023/06/24 02:36:39;;;;;;;54.13;14.77;;;;;;;20.95;77.48;100756.09;4983165;28;20049;-95
2023/06/24 02:39:05;;;;;;;22.63;10.93;;;;;;;20.95;77.19;100745.16;4982797;28;20046;-95
2023/06/24 02:41:30;;;;;;;20.17;10.90;;;;;;;21.05;76.22;100762.13;5006014;28;20026;-94
2023/06/24 02:43:56;;;;;;;28.48;11.57;;;;;;;20.87;76.20;100737.03;4992707;28;20045;-95
2023/06/24 02:46:24;;;;;;;20.75;9.75;;;;;;;20.94;75.62;100739.88;4962127;28;20053;-95
2023/06/24 02:48:51;;;;;;;22.10;11.18;;;;;;;21.04;75.70;100748.63;4961545;28;20042;-93
2023/06/24 02:51:17;;;;;;;18.92;9.38;;;;;;;20.90;75.79;100738.56;4964926;28;20063;-94
2023/06/24 02:53:43;;;;;;;19.75;10.82;;;;;;;21.03;76.24;100757.88;4982414;28;20114;-95
2023/06/24 02:56:09;;;;;;;20.15;11.68;;;;;;;20.81;76.18;100715.06;4980265;28;20050;-95
2023/06/24 02:58:38;;;;;;;31.20;10.10;;;;;;;20.86;75.63;100723.53;4967747;28;20117;-95
2023/06/24 03:01:08;;;;;;;19.40;9.88;;;;;;;20.92;74.95;100728.25;4959177;28;20042;-95
2023/06/24 03:03:35;;;;;;;26.45;9.98;;;;;;;21.09;74.65;100752.53;4959328;28;20123;-95
2023/06/24 03:06:02;;;;;;;20.17;9.45;;;;;;;20.99;74.44;100726.47;4974597;28;20035;-94
2023/06/24 03:08:29;;;;;;;47.45;11.20;;;;;;;21.04;74.57;100741.28;4959202;28;20129;-95
2023/06/24 03:10:55;;;;;;;28.27;9.70;;;;;;;21.09;74.49;100741.59;4959210;28;20422;-95
2023/06/24 03:13:21;;;;;;;31.92;10.88;;;;;;;21.04;74.13;100724.88;4979589;28;20102;-95
2023/06/24 03:15:47;;;;;;;15.35;9.55;;;;;;;21.26;74.04;100761.38;5050029;23;20041;-93
2023/06/24 03:18:13;;;;;;;27.73;10.05;;;;;;;21.20;73.79;100758.56;5034722;23;20130;-94
2023/06/24 03:20:38;;;;;;;24.17;9.65;;;;;;;21.17;73.64;100743.38;5037880;23;20049;-96
2023/06/24 03:23:08;;;;;;;22.45;9.55;;;;;;;21.17;73.34;100737.91;5028126;23;20034;-95
2023/06/24 03:25:34;;;;;;;33.83;10.88;;;;;;;21.21;72.91;100744.69;5000457;28;20034;-96
2023/06/24 03:28:00;;;;;;;30.60;10.15;;;;;;;21.50;72.63;100782.09;5032918;28;20037;-95
2023/06/24 03:30:27;;;;;;;34.97;11.60;;;;;;;21.36;72.82;100758.34;5000639;28;20058;-95
2023/06/24 03:32:52;;;;;;;28.80;11.50;;;;;;;21.39;73.08;100767.03;4991496;28;20113;-93
2023/06/24 03:35:18;;;;;;;46.58;12.30;;;;;;;21.21;73.52;100755.63;5002564;28;20034;-96
2023/06/24 03:37:44;;;;;;;34.40;11.55;;;;;;;21.43;73.61;100787.50;4978630;28;20049;-93
2023/06/24 03:40:10;;;;;;;30.02;11.27;;;;;;;21.22;73.68;100753.75;4948333;29;20035;-94
2023/06/24 03:42:35;;;;;;;37.58;12.13;;;;;;;21.37;73.46;100774.59;4942240;29;20039;-95
2023/06/24 03:45:03;;;;;;;27.95;11.50;;;;;;;21.54;73.56;100800.69;4923238;29;20039;-96
2023/06/24 03:47:29;;;;;;;36.72;12.40;;;;;;;21.58;73.46;100803.91;4923262;29;20465;-94
2023/06/24 03:49:54;;;;;;;23.58;11.13;;;;;;;21.38;73.19;100759.84;4991639;23;20052;-94
2023/06/24 03:52:20;;;;;;;27.00;10.93;;;;;;;21.47;72.89;100766.06;5035063;28;20514;-95
2023/06/24 03:54:46;;;;;;;23.92;9.63;;;;;;;21.76;71.95;100804.31;5032399;28;20092;-84
2023/06/24 03:57:12;;;;;;;32.83;9.82;;;;;;;21.79;71.33;100803.09;5047427;28;20416;-84
2023/06/24 03:59:38;;;;;;;29.52;9.27;;;;;;;21.80;71.51;100791.94;5029896;28;20414;-88
2023/06/24 04:02:08;;;;;;;27.77;10.43;;;;;;;21.85;71.47;100785.88;5031377;28;20060;-85
2023/06/24 04:04:34;;;;;;;15.07;9.45;;;;;;;21.99;71.71;100791.31;5033482;28;20064;-87
2023/06/24 04:06:59;;;;;;;24.42;9.68;;;;;;;22.12;70.70;100798.84;5032307;28;20036;-85
2023/06/24 04:09:25;;;;;;;22.02;10.13;;;;;;;22.14;69.72;100780.31;5012395;28;20561;-82
2023/06/24 04:11:50;;;;;;;25.42;9.52;;;;;;;22.22;69.21;100785.66;5029040;28;20037;-85
2023/06/24 04:14:16;;;;;;;32.20;9.85;;;;;;;22.27;69.30;100790.53;5029187;28;20481;-84
2023/06/24 04:16:41;;;;;;;39.97;10.75;;;;;;;22.36;69.67;100803.91;5032372;28;20037;-85
2023/06/24 04:19:07;;;;;;;36.92;10.85;;;;;;;22.47;69.38;100803.41;5020505;28;20616;-81
2023/06/24 04:21:32;;;;;;;40.58;12.20;;;;;;;22.60;69.20;100805.38;5044919;28;20040;-83
2023/06/24 04:23:58;;;;;;;30.42;12.23;;;;;;;22.70;69.25;100801.28;5025207;28;20041;-85
2023/06/24 04:26:23;;;;;;;24.85;11.18;;;;;;;22.98;67.95;100816.91;5047450;28;20150;-89
2023/06/24 04:28:48;;;;;;;41.67;13.43;;;;;;;23.03;67.38;100808.91;5036678;28;20469;-86
2023/06/24 04:31:14;;;;;;;56.47;15.18;;;;;;;23.20;67.37;100824.88;5027771;28;20037;-85
2023/06/24 04:33:39;;;;;;;37.83;12.23;;;;;;;23.33;66.47;100823.25;5028493;28;20514;-82
2023/06/24 04:36:05;;;;;;;36.25;12.57;;;;;;;23.47;66.73;100831.38;5028433;28;20030;-86
2023/06/24 04:38:30;;;;;;;33.60;11.60;;;;;;;23.51;65.39;100824.44;5028666;28;20029;-80
2023/06/24 04:40:59;;;;;;;46.13;13.77;;;;;;;23.56;65.16;100810.06;5029173;28;20076;-80
2023/06/24 04:43:27;;;;;;;42.42;12.52;;;;;;;23.68;65.15;100814.78;5013103;28;20029;-88
2023/06/24 04:45:54;;;;;;;61.70;15.43;;;;;;;23.83;64.36;100823.72;5028784;28;20395;-82
2023/06/24 04:48:20;;;;;;;57.42;13.55;;;;;;;23.89;64.37;100818.44;5027443;28;20040;-81
2023/06/24 04:50:46;;;;;;;42.10;12.38;;;;;;;24.06;64.12;100825.25;5027783;28;20053;-81
2023/06/24 04:53:11;;;;;;;40.85;9.85;;;;;;;24.21;64.12;100831.47;5027684;28;20040;-82
2023/06/24 04:55:37;;;;;;;9.75;7.43;;;;;;;24.18;64.42;100815.38;5027824;28;20048;-80
2023/06/24 04:58:02;;;;;;;21.60;8.93;;;;;;;24.19;64.73;100817.06;5036112;28;20041;-86
2023/06/24 05:00:28;;;;;;;34.83;10.57;;;;;;;24.42;64.59;100838.66;5047900;28;20731;-79
2023/06/24 05:02:53;;;;;;;23.85;9.88;;;;;;;24.55;64.56;100839.53;5029645;28;20538;-80
2023/06/24 05:05:20;;;;;;;247.95;34.08;;;;;;;24.59;64.74;100832.53;5049832;28;20036;-86
2023/06/24 05:07:45;;;;;;;51.53;13.32;;;;;;;24.70;64.86;100831.94;5050243;28;20076;-90
2023/06/24 05:10:11;;;;;;;14.02;8.35;;;;;;;24.56;65.15;100818.38;5050761;28;20119;-88
2023/06/24 05:12:36;;;;;;;103.53;19.02;;;;;;;24.70;65.21;100842.09;5051549;28;20485;-92
2023/06/24 05:15:02;;;;;;;24.17;9.35;;;;;;;24.81;65.63;100847.81;5040627;28;20136;-90
2023/06/24 05:17:27;;;;;;;23.45;8.68;;;;;;;24.88;65.84;100829.41;5048579;28;20029;-92
2023/06/24 05:19:53;;;;;;;27.60;8.98;;;;;;;25.05;66.22;100831.69;5055303;28;20021;-93
2023/06/24 05:22:18;;;;;;;18.75;9.15;;;;;;;25.01;66.87;100828.56;5062751;28;20045;-91
2023/06/24 05:24:44;;;;;;;10.80;7.57;;;;;;;24.94;68.72;100813.09;5078093;28;20040;-94
2023/06/24 05:27:09;;;;;;;54.00;13.80;;;;;;;25.18;68.99;100845.44;5049623;28;20064;-94
2023/06/24 05:29:35;;;;;;;40.45;10.85;;;;;;;25.22;68.27;100830.22;5051910;28;20045;-93
2023/06/24 05:32:03;;;;;;;23.00;8.68;;;;;;;25.21;67.22;100842.28;5016754;28;20540;-86
2023/06/24 05:34:28;;;;;;;14.77;8.10;;;;;;;25.22;66.69;100841.22;5016545;28;20041;-86
2023/06/24 05:36:54;;;;;;;24.63;9.10;;;;;;;25.18;65.85;100826.19;5016758;28;20049;-84
2023/06/24 05:39:20;;;;;;;26.30;9.82;;;;;;;25.32;65.29;100847.09;5033263;28;20044;-85
2023/06/24 05:41:48;;;;;;;19.23;8.63;;;;;;;25.28;63.94;100838.47;5018122;28;20041;-87
2023/06/24 05:44:13;;;;;;;11.45;7.72;;;;;;;25.32;63.87;100853.47;5036423;28;20041;-80
2023/06/24 05:46:39;;;;;;;30.40;9.32;;;;;;;25.33;63.95;100843.31;5033144;28;20129;-81
2023/06/24 05:49:04;;;;;;;41.85;9.68;;;;;;;25.42;63.51;100847.50;5040080;28;20064;-79
2023/06/24 05:51:30;;;;;;;136.32;21.95;;;;;;;25.46;62.26;100832.25;5039898;28;20033;-90
2023/06/24 05:53:55;;;;;;;43.13;9.63;;;;;;;25.43;63.14;100805.16;5047440;28;20033;-88
2023/06/24 05:56:24;;;;;;;19.95;7.65;;;;;;;25.45;63.02;100827.81;5037874;28;20060;-89
2023/06/24 05:58:50;;;;;;;13.77;7.63;;;;;;;25.46;62.40;100840.53;5052731;28;20037;-87
2023/06/24 06:01:16;;;;;;;15.95;8.00;;;;;;;25.50;64.09;100841.81;5059708;28;20051;-87
2023/06/24 06:03:41;;;;;;;12.18;8.80;;;;;;;25.38;65.13;100813.22;5056665;28;20043;-89
2023/06/24 06:06:07;;;;;;;13.27;6.75;;;;;;;25.23;64.24;100794.19;5060319;28;20033;-85
2023/06/24 06:08:33;;;;;;;64.13;14.23;;;;;;;25.29;63.85;100808.97;5068134;28;20516;-85
2023/06/24 06:11:02;;;;;;;23.40;8.77;;;;;;;25.51;63.96;100812.34;5054431;28;20082;-92
2023/06/24 06:13:27;;;;;;;19.00;8.20;;;;;;;25.52;66.07;100816.81;5046412;28;20150;-80
2023/06/24 06:15:53;;;;;;;71.43;14.00;;;;;;;25.48;67.29;100812.75;5059798;28;20037;-86
2023/06/24 06:18:18;;;;;;;16.85;7.88;;;;;;;25.67;67.35;100833.91;5074488;28;20045;-89
2023/06/24 06:20:44;;;;;;;13.30;8.85;;;;;;;25.63;66.04;100832.63;5073156;28;20033;-83
2023/06/24 06:23:09;;;;;;;20.58;9.50;;;;;;;25.58;65.66;100811.28;5056713;28;20036;-89
2023/06/24 06:25:37;;;;;;;212.80;30.13;;;;;;;25.72;65.57;100803.78;5056005;28;20036;-86
2023/06/24 06:28:03;;;;;;;15.43;7.90;;;;;;;25.60;63.99;100800.88;5037658;28;20492;-86
2023/06/24 06:30:28;;;;;;;14.27;6.90;;;;;;;25.77;64.24;100823.28;5051849;28;20050;-86
2023/06/24 06:32:54;;;;;;;26.80;10.20;;;;;;;25.84;63.82;100818.59;5035037;28;20037;-85
2023/06/24 06:35:19;;;;;;;21.95;7.95;;;;;;;25.72;65.20;100810.13;5046670;28;20041;-88
2023/06/24 06:37:47;;;;;;;13.02;8.07;;;;;;;25.76;63.77;100811.41;5054500;28;20028;-87
2023/06/24 06:40:13;;;;;;;15.20;8.57;;;;;;;25.92;63.68;100818.31;5033383;28;20041;-88
2023/06/24 06:42:39;;;;;;;19.63;7.97;;;;;;;25.94;63.23;100808.75;5021259;28;20037;-87
2023/06/24 06:45:05;;;;;;;26.17;8.35;;;;;;;26.14;62.48;100814.16;5012816;28;20049;-89
2023/06/24 06:47:30;;;;;;;87.70;16.08;;;;;;;26.18;62.18;100803.53;5012361;28;20936;-85
2023/06/24 06:49:55;;;;;;;16.25;8.30;;;;;;;26.26;61.37;100814.31;5016104;28;20153;-88
2023/06/24 06:52:21;;;;;;;19.35;7.50;;;;;;;26.04;62.65;100793.66;5016303;28;20087;-88
2023/06/24 06:54:46;;;;;;;23.45;8.55;;;;;;;25.95;60.32;100782.03;5025691;28;20076;-91
2023/06/24 06:57:12;;;;;;;26.08;9.93;;;;;;;26.24;60.67;100803.50;5019687;28;20041;-89
2023/06/24 06:59:43;;;;;;;12.38;7.68;;;;;;;26.26;59.06;100786.75;5029199;28;20041;-87
2023/06/24 07:02:09;;;;;;;18.35;8.02;;;;;;;26.14;61.45;100788.50;5014123;28;20070;-88
2023/06/24 07:04:34;;;;;;;16.45;8.43;;;;;;;26.27;61.44;100780.16;5033225;28;20398;-83
2023/06/24 07:07:00;;;;;;;34.58;9.30;;;;;;;26.20;58.91;100796.75;5040561;28;20509;-92
2023/06/24 07:09:26;;;;;;;18.75;7.78;;;;;;;26.23;60.46;100784.44;5050183;28;20034;-84
2023/06/24 07:11:52;;;;;;;16.50;12.32;;;;;;;26.24;58.77;100775.06;5049922;28;20030;-87
2023/06/24 07:14:17;;;;;;;9.30;6.75;;;;;;;26.33;59.31;100795.78;5021196;28;20054;-88
2023/06/24 07:16:43;;;;;;;27.35;9.00;;;;;;;26.52;60.79;100801.16;5033406;28;20642;-82
2023/06/24 07:19:08;;;;;;;22.67;8.52;;;;;;;26.49;61.45;100795.25;5034132;28;20042;-84
2023/06/24 07:21:33;;;;;;;13.50;9.23;;;;;;;26.48;60.89;100810.97;5034517;28;20063;-89
2023/06/24 07:23:59;;;;;;;91.85;19.50;;;;;;;26.52;60.21;100800.31;5030241;28;20046;-84
2023/06/24 07:26:24;;;;;;;14.63;7.38;;;;;;;26.50;59.58;100819.88;5035066;28;20040;-87
2023/06/24 07:28:50;;;;;;;24.17;8.50;;;;;;;26.63;60.51;100816.16;5025360;28;20633;-85
2023/06/24 07:31:16;;;;;;;57.50;12.75;;;;;;;26.73;59.42;100810.97;5026190;28;20040;-86
2023/06/24 07:33:41;;;;;;;12.70;7.30;;;;;;;26.47;59.13;100783.63;5021264;28;20063;-83
2023/06/24 07:36:07;;;;;;;14.98;7.35;;;;;;;26.61;54.60;100801.72;5042303;28;20033;-86
2023/06/24 07:38:32;;;;;;;102.68;17.92;;;;;;;26.79;56.09;100812.81;5043748;28;20044;-83
2023/06/24 07:40:57;;;;;;;24.13;8.20;;;;;;;26.76;60.14;100821.56;5036581;28;20381;-85
2023/06/24 07:43:23;;;;;;;11.95;7.60;;;;;;;26.65;56.17;100829.72;5012100;28;20102;-82
2023/06/24 07:45:48;;;;;;;26.38;8.52;;;;;;;26.67;55.37;100817.38;5013923;28;20048;-84
2023/06/24 07:48:14;;;;;;;32.72;8.82;;;;;;;26.80;58.88;100795.22;5033470;28;20047;-83
2023/06/24 07:50:40;;;;;;;16.42;7.20;;;;;;;26.92;59.16;100843.09;5026536;28;20053;-88
2023/06/24 07:53:05;;;;;;;15.52;7.82;;;;;;;26.89;58.25;100813.19;5052220;28;20033;-86
2023/06/24 07:55:32;;;;;;;19.35;7.57;;;;;;;26.95;60.85;100828.84;5050615;28;20041;-90
2023/06/24 07:57:58;;;;;;;14.15;7.20;;;;;;;26.88;60.76;100821.72;5029808;28;20140;-82
2023/06/24 08:00:24;;;;;;;19.75;7.22;;;;;;;26.84;60.54;100813.03;5035481;28;20124;-85
2023/06/24 08:02:50;;;;;;;10.05;6.95;;;;;;;26.96;60.41;100830.56;5051169;28;20112;-83
2023/06/24 08:05:18;;;;;;;17.13;6.82;;;;;;;26.96;58.96;100832.47;5053373;28;20037;-83
2023/06/24 08:07:44;;;;;;;25.63;8.65;;;;;;;26.86;58.85;100796.22;5051336;28;20409;-84
2023/06/24 08:10:09;;;;;;;22.95;7.57;;;;;;;27.10;60.20;100827.63;5049455;28;20040;-86
2023/06/24 08:12:35;;;;;;;17.33;8.05;;;;;;;26.90;58.51;100792.81;5058793;28;20360;-82
2023/06/24 08:15:00;;;;;;;11.38;7.00;;;;;;;26.88;58.30;100800.44;5059153;28;20025;-85
2023/06/24 08:17:26;;;;;;;15.93;7.30;;;;;;;26.98;60.30;100811.84;5057230;28;20513;-81
2023/06/24 08:19:51;;;;;;;51.03;11.43;;;;;;;27.02;56.99;100815.84;5032567;28;20112;-81
2023/06/24 08:22:17;;;;;;;15.25;7.53;;;;;;;27.09;59.82;100813.00;5056687;28;20059;-86
2023/06/24 08:24:42;;;;;;;23.67;7.97;;;;;;;26.86;57.59;100796.22;5037792;28;20047;-80
2023/06/24 08:27:09;;;;;;;29.58;8.95;;;;;;;26.84;59.55;100821.31;5055284;28;20107;-93
2023/06/24 08:29:35;;;;;;;18.00;7.20;;;;;;;26.85;59.61;100811.94;5037242;28;20037;-91
2023/06/24 08:32:02;;;;;;;55.78;13.48;;;;;;;26.96;58.99;100800.19;5040391;28;20045;-93
2023/06/24 08:34:28;;;;;;;26.15;9.10;;;;;;;27.03;60.39;100787.13;5034724;28;20476;-86
2023/06/24 08:36:54;;;;;;;14.30;6.95;;;;;;;27.08;58.40;100778.19;5059182;28;20037;-83
2023/06/24 08:39:20;;;;;;;16.75;8.05;;;;;;;27.09;58.30;100782.63;5040085;28;20048;-84
2023/06/24 08:41:45;;;;;;;40.22;8.60;;;;;;;27.09;57.81;100790.06;5037898;28;20043;-85
2023/06/24 08:44:11;;;;;;;39.58;8.18;;;;;;;27.24;57.13;100805.19;5057100;28;20048;-84
2023/06/24 08:46:36;;;;;;;10.18;6.70;;;;;;;27.35;57.58;100809.09;5055667;28;20413;-85
2023/06/24 08:49:12;;;;;;;11.18;6.10;;;;;;;27.17;57.58;100803.56;5050085;28;20041;-86
2023/06/24 08:51:41;;;;;;;62.92;12.10;;;;;;;27.36;55.02;100814.41;5054303;28;20049;-84
2023/06/24 08:54:09;;;;;;;11.68;5.25;;;;;;;27.37;54.79;100798.66;5020546;28;20036;-85
2023/06/24 08:56:38;;;;;;;15.13;6.00;;;;;;;27.43;52.34;100819.91;5053568;28;20110;-86
2023/06/24 08:59:08;;;;;;;22.85;7.70;;;;;;;27.37;52.48;100804.19;5053453;28;20087;-85
2023/06/24 09:01:34;;;;;;;14.77;6.68;;;;;;;27.42;53.75;100809.88;5054427;28;20544;-87
2023/06/24 09:03:59;;;;;;;17.50;6.80;;;;;;;27.68;53.02;100817.88;5042714;28;20029;-85
2023/06/24 09:06:25;;;;;;;7.18;5.68;;;;;;;27.72;51.70;100816.34;5054353;28;20068;-85
2023/06/24 09:08:57;;;;;;;16.90;6.45;;;;;;;27.75;52.64;100801.19;5070442;28;20064;-87
2023/06/24 09:11:27;;;;;;;13.60;7.43;;;;;;;27.89;53.53;100814.59;5053397;28;20033;-84
2023/06/24 09:13:57;;;;;;;11.68;6.40;;;;;;;27.90;51.43;100809.94;5036285;28;20041;-86
2023/06/24 09:16:22;;;;;;;9.68;6.22;;;;;;;27.93;50.54;100815.84;5036232;28;20045;-84
2023/06/24 09:18:49;;;;;;;23.63;7.07;;;;;;;27.97;50.74;100811.53;5052566;28;20501;-84
2023/06/24 09:21:35;;;;;;;10.25;6.43;;;;;;;27.97;50.45;100822.59;5037773;28;20092;-85
2023/06/24 09:24:01;;;;;;;13.52;5.70;;;;;;;27.95;50.33;100816.44;5054070;28;20402;-86
2023/06/24 09:26:29;;;;;;;18.17;7.65;;;;;;;28.08;51.01;100815.44;5052429;28;20040;-85
2023/06/24 09:28:57;;;;;;;17.35;7.32;;;;;;;28.24;52.57;100822.22;5055140;28;20064;-84
2023/06/24 09:31:24;;;;;;;11.30;6.03;;;;;;;28.22;51.26;100814.19;5038695;28;20044;-85
2023/06/24 09:33:49;;;;;;;7.55;5.15;;;;;;;28.29;47.22;100823.22;5061262;28;20033;-85
2023/06/24 09:36:15;;;;;;;10.52;6.43;;;;;;;28.13;48.80;100820.28;5053550;28;20040;-85
2023/06/24 09:38:44;;;;;;;13.88;6.57;;;;;;;28.17;49.05;100827.84;5053466;28;20044;-85
2023/06/24 09:41:10;;;;;;;18.15;5.10;;;;;;;27.96;49.30;100789.63;5053223;28;20076;-84
2023/06/24 09:43:36;;;;;;;7.95;5.03;;;;;;;28.09;49.72;100820.75;5052475;28;20036;-86
2023/06/24 09:46:04;;;;;;;11.98;5.68;;;;;;;27.96;48.78;100804.31;5052550;28;20377;-84
2023/06/24 09:48:29;;;;;;;10.18;6.03;;;;;;;28.22;51.70;100813.34;5052794;28;20036;-84
2023/06/24 09:50:59;;;;;;;13.48;6.22;;;;;;;28.10;51.69;100816.88;5053766;28;20055;-86
2023/06/24 09:53:25;;;;;;;13.52;5.63;;;;;;;28.03;54.67;100810.59;5053750;28;20029;-86
2023/06/24 09:55:52;;;;;;;12.88;6.65;;;;;;;28.25;55.36;100830.31;5053478;28;20041;-86
2023/06/24 09:58:19;;;;;;;14.85;5.63;;;;;;;28.14;54.89;100822.78;5055693;28;20039;-85
2023/06/24 10:00:44;;;;;;;13.20;6.57;;;;;;;28.24;56.54;100817.56;5039139;28;20041;-85
2023/06/24 10:03:11;;;;;;;30.75;8.35;;;;;;;28.37;56.74;100811.81;5038009;28;20029;-85
2023/06/24 10:05:37;;;;;;;14.50;6.43;;;;;;;28.38;57.00;100818.19;5067439;28;20037;-86
2023/06/24 10:08:09;;;;;;;18.67;6.30;;;;;;;28.29;55.44;100808.53;5067760;28;20025;-86
2023/06/24 10:10:35;;;;;;;17.42;6.35;;;;;;;28.33;55.70;100801.44;5048248;28;20044;-84
2023/06/24 10:13:01;;;;;;;16.33;6.63;;;;;;;28.35;57.18;100807.56;5052989;28;20043;-84
2023/06/24 10:15:27;;;;;;;10.27;6.88;;;;;;;28.37;57.81;100810.97;5034614;28;20545;-85
2023/06/24 10:17:52;;;;;;;72.40;12.18;;;;;;;28.44;57.43;100801.47;5055101;28;20463;-84
2023/06/24 10:20:25;;;;;;;8.98;5.45;;;;;;;28.47;56.85;100802.94;5035619;28;20048;-85
2023/06/24 10:22:51;;;;;;;7.53;5.95;;;;;;;28.58;57.25;100807.66;5051663;28;20535;-86
2023/06/24 10:25:18;;;;;;;7.32;5.50;;;;;;;28.50;56.39;100805.25;5053704;28;20094;-87
2023/06/24 10:27:43;;;;;;;11.70;5.70;;;;;;;28.46;57.37;100804.03;5052976;28;20108;-85
2023/06/24 10:30:18;;;;;;;8.15;5.22;;;;;;;28.21;55.71;100790.34;5055849;28;20137;-82
2023/06/24 10:32:43;;;;;;;33.03;6.88;;;;;;;28.26;58.55;100798.78;5011409;28;20637;-83
2023/06/24 10:35:24;;;;;;;22.95;6.30;;;;;;;28.18;57.43;100789.97;5009820;28;20129;-85
2023/06/24 10:38:00;;;;;;;23.33;7.10;;;;;;;28.32;57.91;100783.16;4993119;28;20044;-85
2023/06/24 10:40:38;;;;;;;210.73;34.58;;;;;;;28.57;57.59;100784.66;4993245;28;20432;-84
2023/06/24 10:43:24;;;;;;;23.80;7.25;;;;;;;28.74;56.45;100798.69;5009428;28;20426;-83
2023/06/24 10:45:54;;;;;;;13.60;5.90;;;;;;;28.64;56.09;100801.16;4951260;29;20407;-85
2023/06/24 10:48:20;;;;;;;14.40;5.95;;;;;;;28.23;56.72;100798.41;4950805;29;20194;-84
2023/06/24 10:50:46;;;;;;;15.68;5.88;;;;;;;28.21;58.23;100792.28;4950998;29;20137;-84
2023/06/24 10:53:13;;;;;;;13.80;6.72;;;;;;;27.95;59.74;100790.72;4937432;29;20039;-83
2023/06/24 10:55:39;;;;;;;13.32;5.80;;;;;;;28.03;59.57;100794.00;4955649;29;20101;-85
2023/06/24 10:58:12;;;;;;;116.40;15.80;;;;;;;27.87;60.59;100791.03;4952919;29;20044;-85
2023/06/24 11:00:39;;;;;;;12.05;6.10;;;;;;;27.93;61.01;100782.66;4953758;29;20527;-85
2023/06/24 11:03:12;;;;;;;11.23;6.55;;;;;;;27.86;60.61;100781.91;4974387;28;20062;-84
2023/06/24 11:05:42;;;;;;;21.48;6.88;;;;;;;27.92;61.12;100764.38;4988541;28;20039;-87
2023/06/24 11:08:08;;;;;;;21.90;6.85;;;;;;;28.24;61.27;100786.28;4956449;28;20435;-86
2023/06/24 11:10:42;;;;;;;31.25;6.38;;;;;;;28.06;61.03;100768.69;4974324;28;20039;-84
2023/06/24 11:13:07;;;;;;;9.50;6.32;;;;;;;28.17;61.08;100780.00;4975475;28;20030;-85
2023/06/24 11:15:33;;;;;;;117.90;18.42;;;;;;;28.34;60.51;100783.78;4972249;28;20603;-85